sensor_id;sensor_type;location;lat;lon;timestamp;pressure;altitude;pressure_sealevel;temperature;humidity
43147;BME280;28752;48.266;7.402;2023-05-12T00:01:11;99136.94;;;13.99;73.82
43147;BME280;28752;48.266;7.402;2023-05-12T00:03:38;99137.44;;;14.03;72.60
43147;BME280;28752;48.266;7.402;2023-05-12T00:06:04;99132.81;;;13.97;73.19
43147;BME280;28752;48.266;7.402;2023-05-12T00:08:29;99133.94;;;14.02;73.79
43147;BME280;28752;48.266;7.402;2023-05-12T00:10:55;99135.69;;;13.87;72.62
43147;BME280;28752;48.266;7.402;2023-05-12T00:13:21;99131.97;;;13.96;72.99
43147;BME280;28752;48.266;7.402;2023-05-12T00:15:50;99127.81;;;13.94;73.12
43147;BME280;28752;48.266;7.402;2023-05-12T00:18:16;99122.34;;;13.95;72.49
43147;BME280;28752;48.266;7.402;2023-05-12T00:20:41;99123.72;;;13.83;73.35
43147;BME280;28752;48.266;7.402;2023-05-12T00:23:07;99120.84;;;13.93;74.25
43147;BME280;28752;48.266;7.402;2023-05-12T00:25:33;99126.47;;;13.98;74.45
43147;BME280;28752;48.266;7.402;2023-05-12T00:27:58;99125.69;;;13.89;74.14
43147;BME280;28752;48.266;7.402;2023-05-12T00:30:24;99126.00;;;13.94;74.27
43147;BME280;28752;48.266;7.402;2023-05-12T00:32:49;99127.81;;;13.94;74.68
43147;BME280;28752;48.266;7.402;2023-05-12T00:35:15;99128.00;;;13.92;75.22
43147;BME280;28752;48.266;7.402;2023-05-12T00:37:41;99123.38;;;13.86;75.22
43147;BME280;28752;48.266;7.402;2023-05-12T00:40:07;99120.94;;;13.76;75.36
43147;BME280;28752;48.266;7.402;2023-05-12T00:42:33;99117.63;;;13.74;75.76
43147;BME280;28752;48.266;7.402;2023-05-12T00:44:59;99116.75;;;13.82;75.90
43147;BME280;28752;48.266;7.402;2023-05-12T00:47:24;99116.09;;;13.80;76.27
43147;BME280;28752;48.266;7.402;2023-05-12T00:49:50;99114.47;;;13.71;76.38
43147;BME280;28752;48.266;7.402;2023-05-12T00:52:15;99108.81;;;13.74;76.60
43147;BME280;28752;48.266;7.402;2023-05-12T00:54:41;99104.84;;;13.70;76.98
43147;BME280;28752;48.266;7.402;2023-05-12T00:57:07;99115.16;;;13.64;77.80
43147;BME280;28752;48.266;7.402;2023-05-12T00:59:32;99113.44;;;13.80;77.59
43147;BME280;28752;48.266;7.402;2023-05-12T01:01:58;99110.16;;;13.70;77.82
43147;BME280;28752;48.266;7.402;2023-05-12T01:04:23;99119.66;;;13.64;78.34
43147;BME280;28752;48.266;7.402;2023-05-12T01:06:58;99109.03;;;13.64;78.54
43147;BME280;28752;48.266;7.402;2023-05-12T01:09:25;99118.69;;;13.57;79.05
43147;BME280;28752;48.266;7.402;2023-05-12T01:11:50;99118.22;;;13.53;78.79
43147;BME280;28752;48.266;7.402;2023-05-12T01:14:16;99112.91;;;13.53;79.18
43147;BME280;28752;48.266;7.402;2023-05-12T01:16:51;99115.69;;;13.60;79.44
43147;BME280;28752;48.266;7.402;2023-05-12T01:19:39;99114.59;;;13.46;79.20
43147;BME280;28752;48.266;7.402;2023-05-12T01:22:11;99118.06;;;13.55;79.12
43147;BME280;28752;48.266;7.402;2023-05-12T01:25:03;99119.50;;;13.57;79.06
43147;BME280;28752;48.266;7.402;2023-05-12T01:27:29;99118.19;;;13.61;78.67
43147;BME280;28752;48.266;7.402;2023-05-12T01:29:58;99111.75;;;13.47;80.32
43147;BME280;28752;48.266;7.402;2023-05-12T01:32:24;99114.72;;;13.53;79.69
43147;BME280;28752;48.266;7.402;2023-05-12T01:34:50;99102.22;;;13.61;78.25
43147;BME280;28752;48.266;7.402;2023-05-12T01:37:16;99105.91;;;13.52;79.10
43147;BME280;28752;48.266;7.402;2023-05-12T01:39:41;99108.78;;;13.42;79.34
43147;BME280;28752;48.266;7.402;2023-05-12T01:42:07;99101.16;;;13.39;80.83
43147;BME280;28752;48.266;7.402;2023-05-12T01:44:32;99104.81;;;13.38;80.43
43147;BME280;28752;48.266;7.402;2023-05-12T01:46:58;99106.94;;;13.43;80.37
43147;BME280;28752;48.266;7.402;2023-05-12T01:49:23;99105.47;;;13.32;80.24
43147;BME280;28752;48.266;7.402;2023-05-12T01:51:49;99105.47;;;13.32;80.58
43147;BME280;28752;48.266;7.402;2023-05-12T01:54:14;99112.59;;;13.31;80.96
43147;BME280;28752;48.266;7.402;2023-05-12T01:56:40;99112.44;;;13.33;79.81
43147;BME280;28752;48.266;7.402;2023-05-12T01:59:06;99114.66;;;13.21;80.33
43147;BME280;28752;48.266;7.402;2023-05-12T02:01:31;99118.25;;;13.28;80.33
43147;BME280;28752;48.266;7.402;2023-05-12T02:03:57;99114.97;;;13.35;80.41
43147;BME280;28752;48.266;7.402;2023-05-12T02:06:24;99115.41;;;13.46;80.33
43147;BME280;28752;48.266;7.402;2023-05-12T02:08:50;99114.44;;;13.31;80.12
43147;BME280;28752;48.266;7.402;2023-05-12T02:11:15;99114.94;;;13.26;80.50
43147;BME280;28752;48.266;7.402;2023-05-12T02:13:41;99123.09;;;13.33;80.20
43147;BME280;28752;48.266;7.402;2023-05-12T02:16:09;99114.25;;;13.32;80.31
43147;BME280;28752;48.266;7.402;2023-05-12T02:18:34;99118.28;;;13.37;80.03
43147;BME280;28752;48.266;7.402;2023-05-12T02:21:00;99117.78;;;13.25;80.55
43147;BME280;28752;48.266;7.402;2023-05-12T02:23:25;99111.13;;;13.21;80.49
43147;BME280;28752;48.266;7.402;2023-05-12T02:25:50;99112.63;;;13.23;80.25
43147;BME280;28752;48.266;7.402;2023-05-12T02:28:16;99113.66;;;13.14;79.35
43147;BME280;28752;48.266;7.402;2023-05-12T02:30:45;99113.19;;;13.10;79.26
43147;BME280;28752;48.266;7.402;2023-05-12T02:33:16;99107.34;;;13.07;80.23
43147;BME280;28752;48.266;7.402;2023-05-12T02:35:42;99112.50;;;13.17;81.19
43147;BME280;28752;48.266;7.402;2023-05-12T02:38:09;99111.84;;;12.98;79.65
43147;BME280;28752;48.266;7.402;2023-05-12T02:40:34;99108.03;;;13.09;79.09
43147;BME280;28752;48.266;7.402;2023-05-12T02:43:00;99112.84;;;13.05;80.43
43147;BME280;28752;48.266;7.402;2023-05-12T02:45:25;99115.50;;;13.05;80.41
43147;BME280;28752;48.266;7.402;2023-05-12T02:47:51;99114.16;;;13.09;80.61
43147;BME280;28752;48.266;7.402;2023-05-12T02:50:16;99108.38;;;13.06;81.09
43147;BME280;28752;48.266;7.402;2023-05-12T02:52:42;99115.19;;;13.00;81.50
43147;BME280;28752;48.266;7.402;2023-05-12T02:55:07;99112.66;;;13.07;81.78
43147;BME280;28752;48.266;7.402;2023-05-12T02:57:33;99104.72;;;12.98;82.00
43147;BME280;28752;48.266;7.402;2023-05-12T03:00:02;99108.03;;;13.01;82.14
43147;BME280;28752;48.266;7.402;2023-05-12T03:02:35;99106.06;;;13.03;82.01
43147;BME280;28752;48.266;7.402;2023-05-12T03:05:02;99109.16;;;13.14;81.47
43147;BME280;28752;48.266;7.402;2023-05-12T03:07:27;99107.00;;;13.18;81.64
43147;BME280;28752;48.266;7.402;2023-05-12T03:09:53;99097.06;;;13.12;81.79
43147;BME280;28752;48.266;7.402;2023-05-12T03:12:18;99101.53;;;13.20;80.80
43147;BME280;28752;48.266;7.402;2023-05-12T03:14:44;99101.00;;;13.16;80.13
43147;BME280;28752;48.266;7.402;2023-05-12T03:17:09;99106.66;;;13.13;79.55
43147;BME280;28752;48.266;7.402;2023-05-12T03:19:34;99098.38;;;13.08;79.81
43147;BME280;28752;48.266;7.402;2023-05-12T03:22:00;99108.38;;;13.06;80.56
43147;BME280;28752;48.266;7.402;2023-05-12T03:24:26;99101.69;;;13.18;80.09
43147;BME280;28752;48.266;7.402;2023-05-12T03:26:51;99105.88;;;13.04;80.19
43147;BME280;28752;48.266;7.402;2023-05-12T03:29:17;99102.72;;;13.01;79.76
43147;BME280;28752;48.266;7.402;2023-05-12T03:31:42;99102.06;;;12.90;80.46
43147;BME280;28752;48.266;7.402;2023-05-12T03:34:07;99102.06;;;12.98;80.26
43147;BME280;28752;48.266;7.402;2023-05-12T03:36:33;99102.41;;;12.95;80.13
43147;BME280;28752;48.266;7.402;2023-05-12T03:38:58;99101.38;;;13.05;80.03
43147;BME280;28752;48.266;7.402;2023-05-12T03:41:23;99104.72;;;12.98;80.61
43147;BME280;28752;48.266;7.402;2023-05-12T03:43:49;99108.03;;;13.01;81.07
43147;BME280;28752;48.266;7.402;2023-05-12T03:46:14;99099.88;;;13.02;82.47
43147;BME280;28752;48.266;7.402;2023-05-12T03:48:40;99102.38;;;13.12;81.14
43147;BME280;28752;48.266;7.402;2023-05-12T03:51:05;99096.72;;;13.07;81.83
43147;BME280;28752;48.266;7.402;2023-05-12T03:53:30;99095.56;;;13.09;81.00
43147;BME280;28752;48.266;7.402;2023-05-12T03:55:56;99100.72;;;13.11;81.39
43147;BME280;28752;48.266;7.402;2023-05-12T03:58:22;99105.84;;;13.12;81.93
43147;BME280;28752;48.266;7.402;2023-05-12T04:00:48;99103.22;;;13.04;81.74
43147;BME280;28752;48.266;7.402;2023-05-12T04:03:14;99099.56;;;13.13;81.63
43147;BME280;28752;48.266;7.402;2023-05-12T04:05:40;99093.91;;;13.08;82.74
43147;BME280;28752;48.266;7.402;2023-05-12T04:08:07;99092.91;;;13.09;82.65
43147;BME280;28752;48.266;7.402;2023-05-12T04:10:32;99099.88;;;13.10;82.58
43147;BME280;28752;48.266;7.402;2023-05-12T04:13:02;99093.72;;;13.10;82.72
43147;BME280;28752;48.266;7.402;2023-05-12T04:15:27;99098.00;;;13.19;81.60
43147;BME280;28752;48.266;7.402;2023-05-12T04:17:52;99092.72;;;13.11;82.10
43147;BME280;28752;48.266;7.402;2023-05-12T04:20:17;99093.91;;;13.08;81.64
43147;BME280;28752;48.266;7.402;2023-05-12T04:22:43;99096.56;;;13.08;82.04
43147;BME280;28752;48.266;7.402;2023-05-12T04:25:08;99102.38;;;13.12;81.11
43147;BME280;28752;48.266;7.402;2023-05-12T04:27:34;99099.03;;;13.10;81.20
43147;BME280;28752;48.266;7.402;2023-05-12T04:29:59;99102.69;;;13.17;80.43
43147;BME280;28752;48.266;7.402;2023-05-12T04:32:25;99099.22;;;13.08;81.16
43147;BME280;28752;48.266;7.402;2023-05-12T04:34:50;99106.50;;;13.14;80.79
43147;BME280;28752;48.266;7.402;2023-05-12T04:37:16;99108.19;;;13.07;81.41
43147;BME280;28752;48.266;7.402;2023-05-12T04:39:41;99100.22;;;13.07;81.32
43147;BME280;28752;48.266;7.402;2023-05-12T04:42:06;99104.88;;;13.13;81.15
43147;BME280;28752;48.266;7.402;2023-05-12T04:44:32;99111.66;;;13.24;81.36
43147;BME280;28752;48.266;7.402;2023-05-12T04:46:57;99114.13;;;13.18;81.27
43147;BME280;28752;48.266;7.402;2023-05-12T04:49:22;99112.66;;;13.07;82.25
43147;BME280;28752;48.266;7.402;2023-05-12T04:51:48;99111.81;;;13.14;80.70
43147;BME280;28752;48.266;7.402;2023-05-12T04:54:13;99108.03;;;13.01;81.72
43147;BME280;28752;48.266;7.402;2023-05-12T04:56:38;99113.28;;;13.25;80.96
43147;BME280;28752;48.266;7.402;2023-05-12T04:59:04;99120.47;;;13.17;81.03
43147;BME280;28752;48.266;7.402;2023-05-12T05:01:30;99122.75;;;13.28;80.58
43147;BME280;28752;48.266;7.402;2023-05-12T05:03:55;99117.09;;;13.31;80.20
43147;BME280;28752;48.266;7.402;2023-05-12T05:06:21;99119.56;;;13.49;79.98
43147;BME280;28752;48.266;7.402;2023-05-12T05:08:46;99125.56;;;13.43;80.34
43147;BME280;28752;48.266;7.402;2023-05-12T05:11:11;99123.41;;;13.30;80.35
43147;BME280;28752;48.266;7.402;2023-05-12T05:13:37;99133.03;;;13.47;79.35
43147;BME280;28752;48.266;7.402;2023-05-12T05:16:02;99129.56;;;13.47;79.50
43147;BME280;28752;48.266;7.402;2023-05-12T05:18:27;99129.50;;;13.55;78.87
43147;BME280;28752;48.266;7.402;2023-05-12T05:20:53;99131.81;;;13.58;78.16
43147;BME280;28752;48.266;7.402;2023-05-12T05:23:19;99136.28;;;13.66;78.00
43147;BME280;28752;48.266;7.402;2023-05-12T05:25:44;99133.53;;;13.82;77.78
43147;BME280;28752;48.266;7.402;2023-05-12T05:28:09;99142.75;;;13.72;77.73
43147;BME280;28752;48.266;7.402;2023-05-12T05:30:35;99141.22;;;13.77;77.38
43147;BME280;28752;48.266;7.402;2023-05-12T05:33:00;99139.03;;;13.81;77.08
43147;BME280;28752;48.266;7.402;2023-05-12T05:35:26;99136.38;;;13.81;77.54
43147;BME280;28752;48.266;7.402;2023-05-12T05:37:51;99139.94;;;13.96;77.37
43147;BME280;28752;48.266;7.402;2023-05-12T05:40:18;99138.56;;;14.09;76.65
43147;BME280;28752;48.266;7.402;2023-05-12T05:42:44;99137.66;;;14.16;75.29
43147;BME280;28752;48.266;7.402;2023-05-12T05:45:10;99144.53;;;14.11;75.76
43147;BME280;28752;48.266;7.402;2023-05-12T05:47:35;99143.06;;;14.08;75.24
43147;BME280;28752;48.266;7.402;2023-05-12T05:50:05;99141.53;;;14.14;75.52
43147;BME280;28752;48.266;7.402;2023-05-12T05:52:30;99140.47;;;14.23;74.92
43147;BME280;28752;48.266;7.402;2023-05-12T05:54:56;99139.75;;;14.29;75.32
43147;BME280;28752;48.266;7.402;2023-05-12T05:57:21;99145.50;;;14.41;74.25
43147;BME280;28752;48.266;7.402;2023-05-12T05:59:46;99139.22;;;14.34;73.91
43147;BME280;28752;48.266;7.402;2023-05-12T06:02:12;99147.09;;;14.50;73.17
43147;BME280;28752;48.266;7.402;2023-05-12T06:04:38;99145.88;;;14.61;72.73
43147;BME280;28752;48.266;7.402;2023-05-12T06:07:03;99144.19;;;14.60;72.63
43147;BME280;28752;48.266;7.402;2023-05-12T06:09:28;99148.88;;;14.81;71.16
43147;BME280;28752;48.266;7.402;2023-05-12T06:11:54;99143.53;;;14.81;71.68
43147;BME280;28752;48.266;7.402;2023-05-12T06:14:19;99155.44;;;14.93;71.08
43147;BME280;28752;48.266;7.402;2023-05-12T06:16:45;99153.97;;;15.06;70.82
43147;BME280;28752;48.266;7.402;2023-05-12T06:19:10;99158.03;;;15.02;71.02
43147;BME280;28752;48.266;7.402;2023-05-12T06:21:37;99160.19;;;15.21;69.83
43147;BME280;28752;48.266;7.402;2023-05-12T06:24:03;99158.78;;;15.40;69.08
43147;BME280;28752;48.266;7.402;2023-05-12T06:26:28;99156.78;;;15.27;68.97
43147;BME280;28752;48.266;7.402;2023-05-12T06:28:53;99160.25;;;15.73;68.77
43147;BME280;28752;48.266;7.402;2023-05-12T06:31:20;99158.06;;;15.76;68.00
43147;BME280;28752;48.266;7.402;2023-05-12T06:33:45;99165.91;;;15.78;67.00
43147;BME280;28752;48.266;7.402;2023-05-12T06:36:11;99167.00;;;15.69;67.32
43147;BME280;28752;48.266;7.402;2023-05-12T06:38:36;99159.00;;;15.84;67.17
43147;BME280;28752;48.266;7.402;2023-05-12T06:41:01;99171.09;;;15.71;67.19
43147;BME280;28752;48.266;7.402;2023-05-12T06:43:27;99173.88;;;15.63;67.68
43147;BME280;28752;48.266;7.402;2023-05-12T06:45:52;99169.38;;;15.63;67.95
43147;BME280;28752;48.266;7.402;2023-05-12T06:48:18;99170.13;;;15.87;67.95
43147;BME280;28752;48.266;7.402;2023-05-12T06:50:44;99169.69;;;15.84;66.97
43147;BME280;28752;48.266;7.402;2023-05-12T06:53:09;99171.06;;;15.79;67.42
43147;BME280;28752;48.266;7.402;2023-05-12T06:55:35;99178.00;;;16.10;67.22
43147;BME280;28752;48.266;7.402;2023-05-12T06:58:00;99173.66;;;16.09;66.65
43147;BME280;28752;48.266;7.402;2023-05-12T07:00:26;99172.97;;;16.01;67.01
43147;BME280;28752;48.266;7.402;2023-05-12T07:02:51;99171.88;;;16.16;66.42
43147;BME280;28752;48.266;7.402;2023-05-12T07:05:17;99166.44;;;16.25;66.47
43147;BME280;28752;48.266;7.402;2023-05-12T07:07:43;99169.69;;;16.20;66.71
43147;BME280;28752;48.266;7.402;2023-05-12T07:10:09;99160.78;;;16.78;64.90
43147;BME280;28752;48.266;7.402;2023-05-12T07:12:35;99165.75;;;16.81;65.15
43147;BME280;28752;48.266;7.402;2023-05-12T07:15:01;99170.81;;;17.19;64.12
43147;BME280;28752;48.266;7.402;2023-05-12T07:17:26;99162.19;;;17.93;62.30
43147;BME280;28752;48.266;7.402;2023-05-12T07:19:53;99170.28;;;18.07;60.74
43147;BME280;28752;48.266;7.402;2023-05-12T07:22:18;99172.09;;;18.00;60.50
43147;BME280;28752;48.266;7.402;2023-05-12T07:24:44;99156.78;;;18.69;59.90
43147;BME280;28752;48.266;7.402;2023-05-12T07:27:10;99167.91;;;18.59;58.42
43147;BME280;28752;48.266;7.402;2023-05-12T07:29:35;99161.13;;;18.83;57.64
43147;BME280;28752;48.266;7.402;2023-05-12T07:32:01;99158.81;;;19.47;56.48
43147;BME280;28752;48.266;7.402;2023-05-12T07:34:27;99161.72;;;20.04;54.36
43147;BME280;28752;48.266;7.402;2023-05-12T07:36:52;99160.66;;;20.82;52.02
43147;BME280;28752;48.266;7.402;2023-05-12T07:39:17;99161.16;;;19.95;53.72
43147;BME280;28752;48.266;7.402;2023-05-12T07:41:49;99169.88;;;19.84;54.81
43147;BME280;28752;48.266;7.402;2023-05-12T07:44:14;99161.94;;;20.41;53.45
43147;BME280;28752;48.266;7.402;2023-05-12T07:46:40;99158.16;;;20.49;52.70
43147;BME280;28752;48.266;7.402;2023-05-12T07:49:05;99161.53;;;20.37;52.88
43147;BME280;28752;48.266;7.402;2023-05-12T07:51:31;99164.69;;;19.89;53.71
43147;BME280;28752;48.266;7.402;2023-05-12T07:53:56;99163.19;;;20.00;53.69
43147;BME280;28752;48.266;7.402;2023-05-12T07:56:22;99160.53;;;18.94;55.76
43147;BME280;28752;48.266;7.402;2023-05-12T07:58:47;99161.06;;;19.43;54.37
43147;BME280;28752;48.266;7.402;2023-05-12T08:01:13;99158.22;;;19.31;54.88
43147;BME280;28752;48.266;7.402;2023-05-12T08:03:38;99154.09;;;19.15;54.74
43147;BME280;28752;48.266;7.402;2023-05-12T08:06:03;99155.78;;;19.95;54.03
43147;BME280;28752;48.266;7.402;2023-05-12T08:08:31;99157.16;;;20.82;54.35
43147;BME280;28752;48.266;7.402;2023-05-12T08:10:57;99155.06;;;19.48;54.84
43147;BME280;28752;48.266;7.402;2023-05-12T08:13:22;99153.84;;;19.57;56.01
43147;BME280;28752;48.266;7.402;2023-05-12T08:15:51;99160.91;;;19.25;56.38
43147;BME280;28752;48.266;7.402;2023-05-12T08:18:16;99152.88;;;19.05;56.08
43147;BME280;28752;48.266;7.402;2023-05-12T08:20:42;99153.50;;;19.27;56.40
43147;BME280;28752;48.266;7.402;2023-05-12T08:23:07;99153.28;;;19.15;56.42
43147;BME280;28752;48.266;7.402;2023-05-12T08:25:33;99158.75;;;18.26;57.86
43147;BME280;28752;48.266;7.402;2023-05-12T08:28:00;99161.63;;;18.11;58.07
43147;BME280;28752;48.266;7.402;2023-05-12T08:30:26;99158.34;;;18.23;58.39
43147;BME280;28752;48.266;7.402;2023-05-12T08:32:55;99153.88;;;18.43;58.11
43147;BME280;28752;48.266;7.402;2023-05-12T08:35:23;99159.84;;;18.52;58.35
43147;BME280;28752;48.266;7.402;2023-05-12T08:37:48;99168.06;;;18.31;59.18
43147;BME280;28752;48.266;7.402;2023-05-12T08:40:21;99160.69;;;18.59;57.63
43147;BME280;28752;48.266;7.402;2023-05-12T08:42:51;99167.47;;;17.87;59.12
43147;BME280;28752;48.266;7.402;2023-05-12T08:45:20;99163.78;;;17.88;60.21
43147;BME280;28752;48.266;7.402;2023-05-12T08:47:48;99163.75;;;18.43;59.60
43147;BME280;28752;48.266;7.402;2023-05-12T08:50:16;99166.13;;;17.98;58.64
43147;BME280;28752;48.266;7.402;2023-05-12T08:52:42;99165.97;;;17.77;59.85
43147;BME280;28752;48.266;7.402;2023-05-12T08:55:08;99175.44;;;18.22;59.21
43147;BME280;28752;48.266;7.402;2023-05-12T08:57:34;99164.16;;;18.40;58.55
43147;BME280;28752;48.266;7.402;2023-05-12T09:00:02;99169.97;;;18.83;58.11
43147;BME280;28752;48.266;7.402;2023-05-12T09:02:30;99164.72;;;18.22;59.48
43147;BME280;28752;48.266;7.402;2023-05-12T09:04:56;99163.31;;;18.26;58.43
43147;BME280;28752;48.266;7.402;2023-05-12T09:07:21;99166.78;;;18.26;58.13
43147;BME280;28752;48.266;7.402;2023-05-12T09:09:53;99180.03;;;18.41;58.89
43147;BME280;28752;48.266;7.402;2023-05-12T09:12:18;99182.25;;;17.76;58.32
43147;BME280;28752;48.266;7.402;2023-05-12T09:14:47;99177.97;;;18.37;58.91
43147;BME280;28752;48.266;7.402;2023-05-12T09:17:15;99177.34;;;18.41;58.31
43147;BME280;28752;48.266;7.402;2023-05-12T09:19:40;99178.84;;;18.64;57.84
43147;BME280;28752;48.266;7.402;2023-05-12T09:22:06;99177.06;;;18.09;57.40
43147;BME280;28752;48.266;7.402;2023-05-12T09:24:37;99183.19;;;18.65;56.36
43147;BME280;28752;48.266;7.402;2023-05-12T09:27:03;99178.59;;;18.39;57.31
43147;BME280;28752;48.266;7.402;2023-05-12T09:29:30;99185.25;;;18.76;56.69
43147;BME280;28752;48.266;7.402;2023-05-12T09:31:57;99179.47;;;18.79;57.55
43147;BME280;28752;48.266;7.402;2023-05-12T09:34:27;99178.28;;;19.22;56.44
43147;BME280;28752;48.266;7.402;2023-05-12T09:36:56;99176.81;;;18.93;56.56
43147;BME280;28752;48.266;7.402;2023-05-12T09:39:21;99179.66;;;18.78;55.75
43147;BME280;28752;48.266;7.402;2023-05-12T09:41:47;99174.34;;;19.11;55.18
43147;BME280;28752;48.266;7.402;2023-05-12T09:44:14;99173.50;;;18.71;56.54
43147;BME280;28752;48.266;7.402;2023-05-12T09:46:43;99166.69;;;18.68;56.56
43147;BME280;28752;48.266;7.402;2023-05-12T09:49:09;99168.34;;;19.16;55.67
43147;BME280;28752;48.266;7.402;2023-05-12T09:51:34;99174.56;;;19.16;56.32
43147;BME280;28752;48.266;7.402;2023-05-12T09:54:00;99171.47;;;18.86;56.57
43147;BME280;28752;48.266;7.402;2023-05-12T09:56:27;99163.75;;;19.50;53.72
43147;BME280;28752;48.266;7.402;2023-05-12T09:58:55;99160.91;;;19.31;54.88
43147;BME280;28752;48.266;7.402;2023-05-12T10:01:21;99172.66;;;19.37;53.82
43147;BME280;28752;48.266;7.402;2023-05-12T10:03:51;99168.97;;;19.11;54.31
43147;BME280;28752;48.266;7.402;2023-05-12T10:11:41;99162.94;;;19.43;53.15
43147;BME280;28752;48.266;7.402;2023-05-12T10:14:07;99169.75;;;19.45;54.27
43147;BME280;28752;48.266;7.402;2023-05-12T10:16:34;99164.72;;;19.76;52.55
43147;BME280;28752;48.266;7.402;2023-05-12T10:19:01;99153.97;;;19.69;51.97
43147;BME280;28752;48.266;7.402;2023-05-12T10:21:28;99151.38;;;19.35;52.91
43147;BME280;28752;48.266;7.402;2023-05-12T10:23:53;99159.66;;;19.41;53.75
43147;BME280;28752;48.266;7.402;2023-05-12T10:26:19;99162.44;;;19.73;51.50
43147;BME280;28752;48.266;7.402;2023-05-12T10:28:45;99155.88;;;19.62;51.39
43147;BME280;28752;48.266;7.402;2023-05-12T10:31:11;99163.09;;;19.68;51.76
43147;BME280;28752;48.266;7.402;2023-05-12T10:33:37;99159.66;;;19.41;50.96
43147;BME280;28752;48.266;7.402;2023-05-12T10:36:03;99151.72;;;19.66;51.48
43147;BME280;28752;48.266;7.402;2023-05-12T10:38:35;99152.13;;;19.69;51.23
43147;BME280;28752;48.266;7.402;2023-05-12T10:41:03;99150.31;;;20.15;49.43
43147;BME280;28752;48.266;7.402;2023-05-12T10:43:40;99148.63;;;20.21;50.36
43147;BME280;28752;48.266;7.402;2023-05-12T10:46:19;99136.25;;;20.45;50.27
43147;BME280;28752;48.266;7.402;2023-05-12T10:49:08;99134.44;;;20.96;50.06
43147;BME280;28752;48.266;7.402;2023-05-12T10:52:00;99129.59;;;21.05;47.56
43147;BME280;28752;48.266;7.402;2023-05-12T10:54:25;99130.97;;;21.33;48.05
43147;BME280;28752;48.266;7.402;2023-05-12T10:56:53;99131.25;;;21.06;48.25
43147;BME280;28752;48.266;7.402;2023-05-12T10:59:23;99130.69;;;20.47;48.83
43147;BME280;28752;48.266;7.402;2023-05-12T11:07:14;99127.28;;;20.58;49.59
43147;BME280;28752;48.266;7.402;2023-05-12T11:09:44;99119.75;;;20.41;49.27
43147;BME280;28752;48.266;7.402;2023-05-12T11:12:11;99126.63;;;20.63;49.61
43147;BME280;28752;48.266;7.402;2023-05-12T11:14:38;99133.00;;;20.04;50.58
43147;BME280;28752;48.266;7.402;2023-05-12T11:17:04;99122.75;;;19.88;50.61
43147;BME280;28752;48.266;7.402;2023-05-12T11:19:31;99127.78;;;19.58;50.95
43147;BME280;28752;48.266;7.402;2023-05-12T11:21:57;99131.94;;;19.60;51.31
43147;BME280;28752;48.266;7.402;2023-05-12T11:24:23;99126.34;;;20.07;50.60
43147;BME280;28752;48.266;7.402;2023-05-12T11:26:49;99129.13;;;19.94;50.49
43147;BME280;28752;48.266;7.402;2023-05-12T11:29:19;99112.00;;;19.88;50.51
43147;BME280;28752;48.266;7.402;2023-05-12T11:31:49;99126.97;;;19.50;52.41
43147;BME280;28752;48.266;7.402;2023-05-12T11:34:14;99124.53;;;19.42;52.76
43147;BME280;28752;48.266;7.402;2023-05-12T11:36:42;99129.91;;;19.35;52.35
43147;BME280;28752;48.266;7.402;2023-05-12T11:39:18;99115.47;;;19.37;52.07
43147;BME280;28752;48.266;7.402;2023-05-12T11:41:45;99123.19;;;19.71;52.32
43147;BME280;28752;48.266;7.402;2023-05-12T11:44:18;99117.81;;;19.71;53.00
43147;BME280;28752;48.266;7.402;2023-05-12T11:47:00;99126.03;;;19.18;52.32
43147;BME280;28752;48.266;7.402;2023-05-12T11:49:27;99118.78;;;19.32;52.34
43147;BME280;28752;48.266;7.402;2023-05-12T11:51:55;99111.72;;;19.44;51.75
43147;BME280;28752;48.266;7.402;2023-05-12T11:54:21;99118.81;;;19.91;52.11
43147;BME280;28752;48.266;7.402;2023-05-12T11:56:51;99122.53;;;19.83;51.85
43147;BME280;28752;48.266;7.402;2023-05-12T11:59:31;99115.91;;;19.92;51.29
43147;BME280;28752;48.266;7.402;2023-05-12T12:01:58;99125.66;;;19.73;51.29
43147;BME280;28752;48.266;7.402;2023-05-12T12:04:35;99104.97;;;19.28;52.02
43147;BME280;28752;48.266;7.402;2023-05-12T12:07:01;99112.34;;;19.40;52.02
43147;BME280;28752;48.266;7.402;2023-05-12T12:09:33;99123.28;;;19.45;52.39
43147;BME280;28752;48.266;7.402;2023-05-12T12:12:00;99116.44;;;19.56;52.52
43147;BME280;28752;48.266;7.402;2023-05-12T12:14:26;99125.22;;;19.83;52.40
43147;BME280;28752;48.266;7.402;2023-05-12T12:16:52;99117.25;;;20.08;52.04
43147;BME280;28752;48.266;7.402;2023-05-12T12:19:17;99120.19;;;20.38;51.90
43147;BME280;28752;48.266;7.402;2023-05-12T12:21:42;99126.50;;;20.19;49.78
43147;BME280;28752;48.266;7.402;2023-05-12T12:24:08;99128.34;;;19.73;51.07
43147;BME280;28752;48.266;7.402;2023-05-12T12:26:34;99119.88;;;19.76;51.10
43147;BME280;28752;48.266;7.402;2023-05-12T12:29:00;99128.47;;;19.40;51.63
43147;BME280;28752;48.266;7.402;2023-05-12T12:31:25;99123.69;;;19.48;51.16
43147;BME280;28752;48.266;7.402;2023-05-12T12:33:50;99122.50;;;19.31;51.70
43147;BME280;28752;48.266;7.402;2023-05-12T12:36:18;99122.69;;;19.29;51.75
43147;BME280;28752;48.266;7.402;2023-05-12T12:38:44;99129.28;;;19.47;52.50
43147;BME280;28752;48.266;7.402;2023-05-12T12:41:09;99126.53;;;19.67;51.86
43147;BME280;28752;48.266;7.402;2023-05-12T12:43:34;99127.91;;;19.83;51.39
43147;BME280;28752;48.266;7.402;2023-05-12T12:46:00;99122.28;;;19.39;50.33
43147;BME280;28752;48.266;7.402;2023-05-12T12:48:25;99130.34;;;19.26;52.11
43147;BME280;28752;48.266;7.402;2023-05-12T12:50:52;99134.81;;;19.52;52.63
43147;BME280;28752;48.266;7.402;2023-05-12T12:53:18;99116.63;;;19.61;52.38
43147;BME280;28752;48.266;7.402;2023-05-12T12:55:43;99134.84;;;19.39;51.11
43147;BME280;28752;48.266;7.402;2023-05-12T12:58:09;99123.53;;;19.23;52.22
43147;BME280;28752;48.266;7.402;2023-05-12T13:00:35;99124.19;;;19.05;53.55
43147;BME280;28752;48.266;7.402;2023-05-12T13:03:00;99125.38;;;19.29;53.15
43147;BME280;28752;48.266;7.402;2023-05-12T13:05:25;99127.47;;;19.27;52.44
43147;BME280;28752;48.266;7.402;2023-05-12T13:07:51;99121.34;;;19.65;50.92